Time;durP1;ratioP1;P1;durP2;ratioP2;P2;SDS_P1;SDS_P2;PMS_P1;PMS_P2;Temp;Humidity;BMP_temperature;BMP_pressure;BME280_temperature;BME280_humidity;BME280_pressure;Samples;Min_cycle;Max_cycle;Signal;HPM_P1;HPM_P2
2021/05/22 03:33:14;;;;;;;4.17;2.90;;;;;;;14.39;56.33;98081.03;7081215;23;20236;-79
2021/05/22 03:36:35;;;;;;;4.70;2.90;;;;;;;13.50;56.96;98078.28;6923586;28;20213;-79
2021/05/22 03:39:56;;;;;;;10.67;5.93;;;;;;;14.06;56.14;98091.81;6922347;28;20268;-80
2021/05/22 03:43:17;;;;;;;8.03;4.20;;;;;;;13.59;57.37;98090.41;6921293;28;20226;-80
2021/05/22 03:46:38;;;;;;;7.03;4.37;;;;;;;14.02;56.29;98089.84;6922077;28;20197;-81
2021/05/22 03:50:00;;;;;;;2.47;2.03;;;;;;;14.17;55.53;98101.75;6921918;28;20270;-81
2021/05/22 03:53:21;;;;;;;2.27;1.83;;;;;;;13.64;54.55;98066.09;6920110;28;20281;-81
2021/05/22 03:56:42;;;;;;;1.60;1.50;;;;;;;14.05;56.16;98092.06;6921173;28;20204;-81
2021/05/22 04:00:05;;;;;;;2.80;1.70;;;;;;;14.29;54.53;98107.16;6920571;28;20212;-81
2021/05/22 04:03:26;;;;;;;2.93;1.50;;;;;;;14.22;54.88;98101.06;6925517;28;20261;-80
2021/05/22 04:06:48;;;;;;;2.47;1.80;;;;;;;14.06;54.41;98099.97;6924928;28;20204;-81
2021/05/22 04:10:13;;;;;;;2.33;1.37;;;;;;;14.28;53.86;98090.06;6925203;28;20663;-81
2021/05/22 04:13:34;;;;;;;2.50;1.70;;;;;;;14.39;54.05;98083.72;6925582;28;20213;-79
2021/05/22 04:16:55;;;;;;;1.93;1.50;;;;;;;14.45;52.98;98044.78;6925335;28;20552;-81
2021/05/22 04:20:16;;;;;;;3.60;1.60;;;;;;;14.64;52.76;98083.31;6924988;28;20213;-79
2021/05/22 04:23:38;;;;;;;1.73;1.63;;;;;;;14.79;52.64;98091.66;6925464;28;20600;-81
2021/05/22 04:27:00;;;;;;;1.37;1.33;;;;;;;14.99;51.87;98094.69;6925242;28;20197;-81
2021/05/22 04:30:22;;;;;;;3.30;1.83;;;;;;;14.50;51.39;98046.75;6923905;28;20207;-80
2021/05/22 04:33:43;;;;;;;3.70;1.60;;;;;;;14.43;52.27;98073.22;6924041;28;20208;-80
2021/05/22 04:37:04;;;;;;;2.33;1.57;;;;;;;14.55;52.04;98063.09;6924684;28;20214;-80
2021/05/22 04:40:26;;;;;;;2.50;1.40;;;;;;;14.45;51.54;98041.25;6923787;28;20567;-82
2021/05/22 04:43:47;;;;;;;2.83;1.70;;;;;;;14.67;52.03;98082.81;6924245;28;20244;-82
2021/05/22 04:47:08;;;;;;;2.20;1.70;;;;;;;15.07;50.83;98083.41;6924291;28;20207;-81
2021/05/22 04:50:32;;;;;;;2.83;1.53;;;;;;;15.06;51.50;98092.63;6923535;28;20242;-81
2021/05/22 04:54:01;;;;;;;3.20;1.70;;;;;;;14.84;50.90;98092.59;6924572;28;20545;-81
2021/05/22 04:57:23;;;;;;;1.83;1.50;;;;;;;14.60;51.96;98082.16;6927220;28;20193;-81
2021/05/22 05:00:44;;;;;;;1.40;1.27;;;;;;;14.70;50.29;98099.41;6926515;28;20262;-81
2021/05/22 05:04:05;;;;;;;2.40;1.30;;;;;;;14.71;51.06;98089.41;6932924;28;20217;-81
2021/05/22 05:07:26;;;;;;;1.50;1.40;;;;;;;15.08;50.71;98102.16;6934413;28;20220;-82
2021/05/22 05:10:48;;;;;;;2.20;1.60;;;;;;;15.83;48.79;98105.03;6937453;28;20230;-82
2021/05/22 05:14:10;;;;;;;2.83;1.37;;;;;;;16.58;47.92;98113.94;6923764;28;20209;-82
2021/05/22 05:17:31;;;;;;;1.53;1.43;;;;;;;17.42;46.12;98119.19;6923589;28;20208;-81
2021/05/22 05:20:52;;;;;;;3.33;1.27;;;;;;;17.52;45.33;98115.69;6922134;28;20229;-82
2021/05/22 05:24:13;;;;;;;2.23;1.70;;;;;;;16.94;45.16;98077.72;6922802;28;20207;-82
2021/05/22 05:27:34;;;;;;;1.20;1.10;;;;;;;16.88;46.60;98125.88;6923253;28;20618;-81
2021/05/22 05:30:56;;;;;;;2.23;2.03;;;;;;;16.42;47.28;98104.00;6900099;28;627958;-81
2021/05/22 05:34:17;;;;;;;2.53;1.90;;;;;;;17.04;46.58;98119.47;6924997;28;20211;-82
2021/05/22 05:37:39;;;;;;;2.00;1.90;;;;;;;17.52;46.47;98116.47;6924751;28;20217;-82
2021/05/22 05:41:00;;;;;;;2.23;1.50;;;;;;;18.09;44.73;98124.59;6923787;28;20222;-82
2021/05/22 05:44:21;;;;;;;1.90;1.37;;;;;;;17.50;44.89;98117.81;6925014;28;20210;-82
2021/05/22 05:47:43;;;;;;;2.77;1.50;;;;;;;17.55;45.22;98118.69;6924270;28;20210;-81
2021/05/22 05:51:05;;;;;;;5.90;1.60;;;;;;;17.35;45.73;98125.91;6926109;28;20254;-78
2021/05/22 05:54:26;;;;;;;2.17;1.40;;;;;;;17.25;45.45;98117.69;6943752;28;20210;-79
2021/05/22 05:57:47;;;;;;;3.87;1.90;;;;;;;16.83;46.83;98116.88;6940217;28;20210;-82
2021/05/22 06:01:13;;;;;;;1.90;1.60;;;;;;;16.47;47.48;98129.38;6938944;28;20229;-81
2021/05/22 06:04:35;;;;;;;3.90;1.70;;;;;;;16.55;47.83;98138.94;6922971;28;20351;-82
2021/05/22 06:07:56;;;;;;;3.80;2.20;;;;;;;16.91;47.37;98149.88;6923011;28;20265;-81
2021/05/22 06:11:19;;;;;;;2.10;1.90;;;;;;;17.16;45.70;98141.88;6922235;28;20573;-82
2021/05/22 06:14:44;;;;;;;4.33;1.83;;;;;;;16.78;47.01;98150.31;6923510;28;20216;-81
2021/05/22 06:18:06;;;;;;;3.70;2.40;;;;;;;17.34;46.96;98146.06;6906959;28;20334;-81
2021/05/22 06:21:28;;;;;;;2.97;1.80;;;;;;;17.75;46.22;98137.84;6921890;28;20216;-80
2021/05/22 06:24:49;;;;;;;5.17;2.00;;;;;;;18.25;43.35;98142.63;6922302;28;20207;-82
2021/05/22 06:28:10;;;;;;;2.60;1.63;;;;;;;18.59;42.95;98131.00;6921874;28;20668;-81
2021/05/22 06:31:31;;;;;;;3.40;1.77;;;;;;;18.80;43.11;98138.06;6920461;28;20241;-82
2021/05/22 06:34:52;;;;;;;2.77;1.70;;;;;;;18.28;43.18;98142.09;6910119;28;20206;-82
2021/05/22 06:38:14;;;;;;;4.73;3.50;;;;;;;18.72;42.08;98141.38;6895187;28;20236;-82
2021/05/22 06:41:35;;;;;;;3.37;1.60;;;;;;;18.96;42.65;98119.75;6893811;28;20229;-80
2021/05/22 06:45:01;;;;;;;4.97;2.50;;;;;;;19.39;40.88;98135.59;6895417;28;20208;-81
2021/05/22 06:48:22;;;;;;;2.07;1.73;;;;;;;18.99;41.59;98133.69;6895067;28;20358;-80
2021/05/22 06:51:43;;;;;;;5.30;2.17;;;;;;;19.11;40.77;98125.22;6895224;28;20238;-81
2021/05/22 06:55:07;;;;;;;4.43;1.90;;;;;;;19.18;41.62;98132.03;6897617;28;20216;-80
2021/05/22 06:58:28;;;;;;;3.83;1.83;;;;;;;19.62;40.07;98140.41;6897030;28;20235;-82
2021/05/22 07:01:49;;;;;;;2.70;1.60;;;;;;;18.66;40.49;98112.41;6894614;28;20227;-81
2021/05/22 07:05:11;;;;;;;3.13;1.80;;;;;;;18.01;42.98;98125.94;6895253;28;20200;-80
2021/05/22 07:08:33;;;;;;;3.53;2.00;;;;;;;18.58;41.20;98109.41;6895790;28;20205;-80
2021/05/22 07:11:55;;;;;;;3.47;2.00;;;;;;;18.67;40.79;98092.22;6894216;28;20268;-82
2021/05/22 07:15:16;;;;;;;3.23;1.80;;;;;;;18.74;39.96;98079.09;6894971;28;20208;-82
2021/05/22 07:18:37;;;;;;;5.20;2.33;;;;;;;20.31;38.21;98114.66;6894538;28;20220;-82
2021/05/22 07:21:58;;;;;;;4.40;2.00;;;;;;;19.97;38.21;98069.94;6893534;28;20235;-82
2021/05/22 07:25:19;;;;;;;3.43;1.97;;;;;;;19.53;38.73;98122.97;6894039;28;20209;-81
2021/05/22 07:28:41;;;;;;;6.07;2.20;;;;;;;19.97;37.99;98119.22;6894606;28;20217;-82
2021/05/22 07:32:03;;;;;;;5.57;2.07;;;;;;;19.19;39.79;98111.81;6893671;28;20240;-82
2021/05/22 07:35:24;;;;;;;3.37;1.93;;;;;;;18.50;41.09;98129.06;6895045;28;20641;-82
2021/05/22 07:38:45;;;;;;;4.13;1.83;;;;;;;18.38;41.10;98129.31;6894572;28;20215;-82
2021/05/22 07:42:06;;;;;;;4.10;2.03;;;;;;;18.33;39.95;98109.41;6895188;28;20233;-82
2021/05/22 07:45:28;;;;;;;3.60;1.77;;;;;;;18.42;40.11;98141.34;6895043;28;20259;-82
2021/05/22 07:48:49;;;;;;;2.90;2.03;;;;;;;17.49;39.85;98124.38;6895258;28;20238;-82
2021/05/22 07:52:11;;;;;;;4.03;1.97;;;;;;;18.57;38.58;98135.88;6894931;28;20324;-80
2021/05/22 07:55:32;;;;;;;4.30;2.47;;;;;;;18.84;38.08;98111.88;6896445;28;20208;-81
2021/05/22 07:58:53;;;;;;;3.70;2.00;;;;;;;19.17;37.62;98086.66;6896575;28;20200;-81
2021/05/22 08:02:16;;;;;;;4.50;2.57;;;;;;;19.74;36.31;98114.38;6895517;28;20790;-82
2021/05/22 08:05:38;;;;;;;3.80;1.80;;;;;;;19.46;36.55;98116.97;6895000;28;20423;-82
2021/05/22 08:08:59;;;;;;;3.40;1.63;;;;;;;19.14;37.16;98143.78;6894920;28;20206;-81
2021/05/22 08:12:20;;;;;;;3.57;1.63;;;;;;;18.65;36.96;98129.06;6894453;28;20681;-81
2021/05/22 08:15:41;;;;;;;3.33;1.90;;;;;;;18.51;37.90;98130.72;6894185;28;20696;-80
2021/05/22 08:19:03;;;;;;;2.67;1.90;;;;;;;18.36;37.01;98134.25;6894314;28;20208;-83
2021/05/22 08:22:25;;;;;;;3.50;1.77;;;;;;;18.62;37.43;98124.16;6894231;28;20612;-82
2021/05/22 08:25:46;;;;;;;4.17;1.80;;;;;;;18.17;37.51;98135.00;6894760;28;20616;-82
2021/05/22 08:29:07;;;;;;;4.43;1.90;;;;;;;18.07;37.66;98133.06;6895006;28;20212;-82
2021/05/22 08:32:29;;;;;;;3.20;1.80;;;;;;;18.46;37.32;98130.72;6892397;28;20232;-82
2021/05/22 08:35:51;;;;;;;4.60;1.93;;;;;;;18.70;36.51;98120.88;6896115;28;20653;-81
2021/05/22 08:39:12;;;;;;;3.17;2.17;;;;;;;19.52;36.23;98115.84;6894947;28;20212;-81
2021/05/22 08:42:33;;;;;;;3.40;1.53;;;;;;;20.80;31.97;98134.56;6894606;28;20225;-82
2021/05/22 08:45:55;;;;;;;3.30;1.70;;;;;;;19.60;33.88;98123.47;6896284;28;20582;-81
2021/05/22 08:49:16;;;;;;;2.10;1.40;;;;;;;20.39;32.34;98114.06;6898509;28;20213;-82
2021/05/22 08:52:38;;;;;;;2.03;1.60;;;;;;;19.64;33.21;98102.69;6899538;28;20232;-81
2021/05/22 08:55:59;;;;;;;4.07;1.67;;;;;;;20.73;31.57;98116.81;6900007;28;20661;-82
2021/05/22 08:59:20;;;;;;;2.03;1.60;;;;;;;21.06;30.86;98102.28;6900177;28;20216;-80
2021/05/22 09:02:42;;;;;;;2.10;1.70;;;;;;;21.17;30.44;98099.97;6900489;28;20225;-82
2021/05/22 09:06:04;;;;;;;5.23;2.30;;;;;;;21.35;29.89;98092.91;6899281;28;20232;-82
2021/05/22 09:09:39;;;;;;;2.87;1.50;;;;;;;22.43;28.66;98097.31;6904205;28;20675;-79
2021/05/22 09:13:02;;;;;;;3.87;1.80;;;;;;;21.04;29.86;98097.09;6901465;28;20236;-82
2021/05/22 09:16:34;;;;;;;3.10;1.60;;;;;;;21.05;29.29;98117.91;6909163;28;20211;-81
2021/05/22 09:20:10;;;;;;;2.27;1.80;;;;;;;21.86;28.35;98100.31;6909999;28;20308;-82
2021/05/22 09:23:35;;;;;;;4.20;1.53;;;;;;;21.53;27.99;98109.44;6898320;28;20231;-80
2021/05/22 09:27:09;;;;;;;4.67;1.67;;;;;;;21.38;27.40;98092.34;6899177;28;20222;-82
2021/05/22 09:30:30;;;;;;;4.47;2.90;;;;;;;21.44;28.20;98103.00;6896588;28;20219;-81
2021/05/22 09:33:58;;;;;;;2.70;1.40;;;;;;;21.88;27.16;98098.06;6898250;28;20257;-82
2021/05/22 09:37:19;;;;;;;4.33;1.50;;;;;;;20.77;28.48;98103.06;6898661;28;20193;-82
2021/05/22 09:40:42;;;;;;;2.40;1.30;;;;;;;22.01;27.20;98107.53;6897956;28;20274;-81
2021/05/22 09:44:09;;;;;;;3.87;1.80;;;;;;;21.55;27.39;98084.47;6898854;28;20255;-81
2021/05/22 09:47:31;;;;;;;3.37;1.50;;;;;;;20.47;27.24;98090.72;6895748;28;20220;-81
2021/05/22 09:50:53;;;;;;;1.93;1.47;;;;;;;21.31;27.60;98094.63;6894211;28;20224;-79
2021/05/22 09:54:14;;;;;;;2.23;1.27;;;;;;;21.27;26.78;98114.72;6894547;28;20240;-78
2021/05/22 09:57:45;;;;;;;2.80;1.60;;;;;;;21.28;26.60;98120.72;6893739;28;20209;-78
2021/05/22 10:01:07;;;;;;;1.63;1.10;;;;;;;21.73;26.17;98120.22;6893685;28;20670;-78
2021/05/22 10:04:28;;;;;;;1.77;1.40;;;;;;;21.81;26.45;98130.56;6893618;28;20214;-78
2021/05/22 10:07:51;;;;;;;1.70;1.37;;;;;;;21.59;26.62;98113.78;6894088;28;20295;-80
2021/05/22 10:11:12;;;;;;;1.57;1.23;;;;;;;21.82;25.70;98099.25;6895482;28;20238;-79
2021/05/22 10:14:35;;;;;;;2.50;1.23;;;;;;;22.57;25.44;98094.63;6895258;28;20206;-81
2021/05/22 10:17:57;;;;;;;1.50;1.40;;;;;;;23.51;25.77;98113.31;6894114;28;20208;-79
2021/05/22 10:21:18;;;;;;;3.37;1.50;;;;;;;23.16;24.49;98098.31;6892592;28;20238;-79
2021/05/22 10:24:39;;;;;;;2.50;1.60;;;;;;;23.50;24.99;98106.19;6893945;28;20804;-78
2021/05/22 10:28:00;;;;;;;2.83;1.40;;;;;;;22.82;25.74;98086.78;6894631;28;20210;-79
2021/05/22 10:31:22;;;;;;;2.40;1.20;;;;;;;23.19;25.75;98116.94;6893683;28;20695;-79
2021/05/22 10:34:44;;;;;;;3.17;1.37;;;;;;;23.60;24.69;98108.75;6894730;28;20212;-79
2021/05/22 10:38:05;;;;;;;4.73;1.97;;;;;;;23.26;24.29;98102.81;6895227;28;20207;-79
2021/05/22 10:41:38;;;;;;;4.37;1.50;;;;;;;22.91;25.67;98111.66;6892496;28;20643;-82
2021/05/22 10:44:59;;;;;;;3.53;1.40;;;;;;;22.78;25.62;98095.94;6892797;28;20197;-80
2021/05/22 10:48:52;;;;;;;3.93;1.40;;;;;;;22.58;25.96;98113.56;6893157;28;20231;-80
2021/05/22 10:52:21;;;;;;;4.17;1.67;;;;;;;22.92;25.95;98091.28;6892558;28;20241;-79
2021/05/22 10:55:43;;;;;;;2.77;1.83;;;;;;;22.64;26.29;98093.13;6911677;28;20585;-79
2021/05/22 10:59:11;;;;;;;4.67;2.07;;;;;;;23.33;25.16;98105.97;6922861;28;20244;-79
2021/05/22 11:02:33;;;;;;;3.10;1.60;;;;;;;22.91;24.95;98100.66;6922063;28;20238;-78
2021/05/22 11:05:54;;;;;;;4.20;2.27;;;;;;;23.88;24.38;98083.69;6920067;28;20217;-79
2021/05/22 11:09:44;;;;;;;4.50;2.07;;;;;;;24.51;23.85;98100.16;6919215;28;20268;-80
2021/05/22 11:13:06;;;;;;;1.97;1.43;;;;;;;22.85;24.09;98110.94;6918620;28;20235;-78
2021/05/22 11:16:34;;;;;;;2.70;1.57;;;;;;;22.35;24.48;98089.72;6919209;28;20208;-79
2021/05/22 11:20:22;;;;;;;2.20;1.30;;;;;;;22.70;24.53;98116.66;6919534;28;20821;-78
2021/05/22 11:24:06;;;;;;;4.83;1.90;;;;;;;21.99;25.61;98118.78;6894190;28;20211;-78
2021/05/22 11:28:00;;;;;;;2.70;1.90;;;;;;;22.68;25.45;98110.66;6918430;28;20283;-78
2021/05/22 11:31:32;;;;;;;1.87;1.50;;;;;;;23.44;24.76;98118.41;6915730;28;20235;-78
2021/05/22 11:34:53;;;;;;;1.63;1.10;;;;;;;22.40;23.07;98103.38;6918474;28;20214;-78
2021/05/22 11:38:40;;;;;;;3.90;1.73;;;;;;;22.59;24.27;98103.41;6918817;28;20211;-79
2021/05/22 11:42:27;;;;;;;1.67;1.50;;;;;;;22.54;23.46;98104.28;6918355;28;20236;-79
2021/05/22 11:45:49;;;;;;;1.37;1.00;;;;;;;23.24;24.00;98085.81;6918657;28;20208;-81
2021/05/22 11:49:11;;;;;;;1.67;1.30;;;;;;;23.23;23.69;98092.41;6918397;28;20209;-78
2021/05/22 11:52:33;;;;;;;2.70;1.60;;;;;;;22.35;23.39;98106.19;6918042;28;20230;-78
2021/05/22 11:55:55;;;;;;;3.00;1.27;;;;;;;22.48;23.15;98088.19;6918682;28;20204;-78
2021/05/22 11:59:16;;;;;;;1.97;1.30;;;;;;;21.92;23.76;98082.66;6918371;28;20218;-78
2021/05/22 12:02:38;;;;;;;1.57;1.47;;;;;;;22.07;24.79;98112.63;6917583;28;20234;-79
2021/05/22 12:06:00;;;;;;;1.87;1.60;;;;;;;23.59;22.37;98124.44;6918690;28;20208;-79
2021/05/22 12:09:22;;;;;;;3.07;2.00;;;;;;;22.91;22.67;98100.66;6918504;28;20214;-78
2021/05/22 12:12:43;;;;;;;2.40;1.23;;;;;;;22.40;22.99;98064.09;6917200;28;20587;-79
2021/05/22 12:16:14;;;;;;;2.30;1.30;;;;;;;22.20;22.28;98124.81;6918432;28;20219;-79
2021/05/22 12:19:37;;;;;;;4.93;2.20;;;;;;;22.50;22.53;98119.75;6918131;28;20198;-78
2021/05/22 12:22:59;;;;;;;3.43;1.60;;;;;;;23.04;21.96;98119.94;6920694;28;20221;-79
2021/05/22 12:26:20;;;;;;;2.13;1.40;;;;;;;24.27;21.79;98110.66;6922918;28;20213;-83
2021/05/22 12:29:41;;;;;;;2.27;1.40;;;;;;;24.66;21.40;98114.44;6923975;28;20212;-78
2021/05/22 12:33:22;;;;;;;3.20;1.77;;;;;;;24.04;21.83;98119.97;6920587;28;20645;-80
2021/05/22 12:37:01;;;;;;;1.67;1.13;;;;;;;24.39;22.13;98125.53;6923375;28;20218;-79
2021/05/22 12:40:23;;;;;;;3.20;1.23;;;;;;;24.07;21.56;98128.44;6922567;28;20187;-79
2021/05/22 12:43:45;;;;;;;4.73;1.60;;;;;;;22.45;23.21;98124.47;6922812;28;20232;-78
2021/05/22 12:47:07;;;;;;;2.20;1.20;;;;;;;23.77;22.55;98101.50;6922516;28;20204;-78
2021/05/22 12:50:30;;;;;;;1.60;1.23;;;;;;;23.20;22.76;98120.53;6922184;28;20211;-78
2021/05/22 12:53:51;;;;;;;2.63;1.30;;;;;;;23.28;23.24;98104.13;6922249;28;20255;-78
2021/05/22 12:57:17;;;;;;;2.33;1.20;;;;;;;22.86;23.26;98106.22;6922342;28;20540;-78
2021/05/22 13:00:38;;;;;;;3.47;1.17;;;;;;;22.58;22.73;98132.81;6922669;28;20665;-79
2021/05/22 13:03:59;;;;;;;5.17;1.30;;;;;;;22.75;22.63;98108.34;6922229;28;20200;-78
2021/05/22 13:07:26;;;;;;;1.47;1.23;;;;;;;22.77;22.65;98105.31;6922676;28;20208;-79
2021/05/22 13:10:47;;;;;;;2.70;1.37;;;;;;;22.60;23.24;98130.56;6921425;28;20227;-78
2021/05/22 13:14:09;;;;;;;2.53;1.00;;;;;;;22.62;24.57;98125.59;6922181;28;20254;-82
2021/05/22 13:17:48;;;;;;;3.40;1.63;;;;;;;22.49;24.98;98150.25;6921927;28;20205;-79
2021/05/22 13:21:11;;;;;;;1.90;1.33;;;;;;;21.91;25.54;98135.94;6921742;28;20236;-79
2021/05/22 13:24:32;;;;;;;3.40;1.47;;;;;;;22.39;24.85;98142.94;6922457;28;20221;-79
2021/05/22 13:28:01;;;;;;;2.03;1.33;;;;;;;22.58;25.11;98154.78;6922306;28;20215;-80
2021/05/22 13:31:26;;;;;;;2.97;2.60;;;;;;;22.57;24.96;98153.16;6919359;28;20242;-82
2021/05/22 13:34:49;;;;;;;0.93;0.80;;;;;;;22.05;25.08;98133.25;6920942;28;20188;-78
2021/05/22 13:38:11;;;;;;;2.67;1.40;;;;;;;22.12;24.83;98137.28;6921697;28;20205;-79
2021/05/22 13:41:33;;;;;;;1.20;1.10;;;;;;;22.80;25.12;98137.69;6921076;28;20245;-79
2021/05/22 13:44:54;;;;;;;2.17;1.50;;;;;;;23.27;25.33;98149.28;6921512;28;20220;-80
2021/05/22 13:48:16;;;;;;;4.70;1.90;;;;;;;22.92;25.59;98125.09;6921873;28;20207;-80
2021/05/22 13:51:39;;;;;;;2.33;1.07;;;;;;;22.89;24.16;98098.19;6921289;28;20236;-79
2021/05/22 13:55:01;;;;;;;3.53;1.10;;;;;;;22.28;24.79;98122.22;6922219;28;20212;-78
2021/05/22 13:58:22;;;;;;;2.73;1.10;;;;;;;22.23;25.42;98126.97;6921771;28;20209;-80
2021/05/22 14:01:43;;;;;;;2.97;1.10;;;;;;;22.50;24.35;98124.41;6921146;28;20228;-79
2021/05/22 14:05:06;;;;;;;2.00;1.23;;;;;;;23.35;24.17;98121.06;6921540;28;20211;-78
2021/05/22 14:08:27;;;;;;;2.20;1.30;;;;;;;23.96;23.63;98120.69;6920945;28;20205;-79
2021/05/22 14:11:48;;;;;;;2.53;1.47;;;;;;;25.20;23.46;98118.88;6920350;28;20263;-80
2021/05/22 14:15:10;;;;;;;1.60;1.23;;;;;;;25.18;22.95;98119.19;6920839;28;20204;-79
2021/05/22 14:18:32;;;;;;;2.67;1.07;;;;;;;23.28;23.94;98114.31;6921688;28;20222;-79
2021/05/22 14:21:54;;;;;;;2.03;1.13;;;;;;;23.65;23.43;98120.47;6922247;28;20228;-79
2021/05/22 14:25:21;;;;;;;3.40;1.30;;;;;;;24.17;23.11;98106.19;6928401;28;20217;-81
2021/05/22 14:28:44;;;;;;;1.90;1.40;;;;;;;22.76;23.85;98103.66;6929766;28;20199;-79
2021/05/22 14:32:06;;;;;;;3.17;1.23;;;;;;;23.74;24.73;98104.88;6919253;28;20234;-81
2021/05/22 14:35:27;;;;;;;3.90;1.60;;;;;;;23.95;23.58;98073.06;6920717;28;20184;-81
2021/05/22 14:38:49;;;;;;;2.37;1.60;;;;;;;23.43;23.42;98112.09;6920484;28;20567;-79
2021/05/22 14:42:10;;;;;;;2.70;1.73;;;;;;;23.74;23.96;98115.91;6919617;28;20699;-79
2021/05/22 14:45:31;;;;;;;1.33;1.00;;;;;;;23.09;25.00;98119.03;6920138;28;20215;-81
2021/05/22 14:48:53;;;;;;;3.43;1.30;;;;;;;22.68;24.20;98085.09;6920270;28;20207;-79
2021/05/22 14:52:14;;;;;;;6.97;1.77;;;;;;;22.85;24.31;98049.63;6919532;28;20239;-79
2021/05/22 14:55:36;;;;;;;4.70;1.43;;;;;;;23.65;24.54;98111.41;6920586;28;20214;-80
2021/05/22 14:58:57;;;;;;;2.40;1.40;;;;;;;23.50;23.36;98108.94;6920149;28;20218;-82
2021/05/22 15:02:19;;;;;;;2.53;1.60;;;;;;;23.15;24.83;98101.31;6919735;28;20240;-79
2021/05/22 15:05:40;;;;;;;1.77;1.10;;;;;;;23.32;25.18;98099.66;6920341;28;20213;-79
2021/05/22 15:09:01;;;;;;;2.13;1.20;;;;;;;22.83;23.95;98098.59;6920156;28;20209;-79
2021/05/22 15:12:23;;;;;;;2.63;1.13;;;;;;;22.99;24.01;98103.53;6919741;28;20302;-80
2021/05/22 15:15:44;;;;;;;1.77;1.30;;;;;;;23.59;23.21;98102.44;6919579;28;20217;-81
2021/05/22 15:19:06;;;;;;;3.97;1.40;;;;;;;23.32;24.21;98079.59;6919544;28;20220;-79
2021/05/22 15:22:27;;;;;;;1.83;1.20;;;;;;;23.06;24.53;98081.16;6918507;28;20233;-79
2021/05/22 15:25:48;;;;;;;3.07;1.63;;;;;;;23.35;24.68;98093.53;6919159;28;20211;-79
2021/05/22 15:29:10;;;;;;;7.50;1.63;;;;;;;23.03;24.39;98095.50;6918903;28;20215;-80
2021/05/22 15:32:31;;;;;;;2.90;1.40;;;;;;;22.73;24.79;98104.25;6916981;28;20225;-80
2021/05/22 15:35:52;;;;;;;4.77;1.50;;;;;;;23.16;25.17;98103.81;6919186;28;20625;-79
2021/05/22 15:39:13;;;;;;;1.50;1.40;;;;;;;23.16;24.80;98103.81;6919062;28;20213;-79
2021/05/22 15:42:35;;;;;;;1.83;1.30;;;;;;;23.43;25.87;98114.84;6920555;28;20226;-80
2021/05/22 15:45:57;;;;;;;5.63;1.47;;;;;;;23.54;24.84;98080.50;6949360;23;20239;-75
2021/05/22 16:00:26;;;;;;;2.00;1.30;;;;;;;22.08;26.07;98083.25;6888441;28;20680;-75
2021/05/22 16:04:26;;;;;;;2.33;1.40;;;;;;;21.98;26.44;98092.47;6929448;28;20294;-75
2021/05/22 16:07:47;;;;;;;3.27;1.37;;;;;;;22.10;26.85;98114.81;6929520;28;20618;-75
2021/05/22 16:11:08;;;;;;;1.60;1.20;;;;;;;22.46;24.11;98126.13;6928648;28;20213;-75
2021/05/22 16:14:30;;;;;;;1.60;0.80;;;;;;;22.28;22.65;98071.97;6914589;28;20263;-75
2021/05/22 16:17:51;;;;;;;1.47;1.00;;;;;;;21.71;23.15;98072.25;6901526;28;20205;-75
2021/05/22 16:21:14;;;;;;;1.47;1.00;;;;;;;21.51;22.90;98061.47;6902180;28;20218;-74
2021/05/22 16:24:35;;;;;;;2.90;1.00;;;;;;;21.87;22.53;98063.50;6902973;28;20303;-75
2021/05/22 16:27:57;;;;;;;1.37;1.27;;;;;;;22.59;23.03;98136.38;6901907;28;20670;-74
2021/05/22 16:31:18;;;;;;;1.37;1.00;;;;;;;22.34;23.28;98158.66;6900006;28;20216;-75
2021/05/22 16:34:40;;;;;;;2.80;1.50;;;;;;;21.87;23.82;98115.66;6901941;28;20200;-75
2021/05/22 16:38:02;;;;;;;2.67;1.00;;;;;;;21.52;24.02;98126.19;6902260;28;20577;-75
2021/05/22 16:41:24;;;;;;;2.80;1.20;;;;;;;21.76;23.90;98114.16;6901312;28;20214;-75
2021/05/22 16:44:46;;;;;;;2.57;1.10;;;;;;;22.07;24.22;98060.47;6900718;28;20210;-75
2021/05/22 16:48:08;;;;;;;2.80;1.20;;;;;;;22.27;23.84;98133.50;6901570;28;20212;-75
2021/05/22 16:51:29;;;;;;;1.83;1.53;;;;;;;21.79;23.75;98060.59;6900759;28;20251;-75
2021/05/22 16:54:52;;;;;;;1.73;1.20;;;;;;;22.23;25.02;98100.34;6900081;28;20213;-75
2021/05/22 16:58:13;;;;;;;3.40;1.10;;;;;;;22.27;24.03;98059.34;6899395;28;20205;-76
2021/05/22 17:01:34;;;;;;;2.30;2.10;;;;;;;22.06;23.95;98052.56;6896964;28;20211;-76
2021/05/22 17:04:55;;;;;;;8.83;5.37;;;;;;;21.76;24.89;98053.78;6898205;28;20222;-75
2021/05/22 17:08:17;;;;;;;3.83;2.40;;;;;;;22.18;23.51;98155.31;6899139;28;20212;-75
2021/05/22 17:11:39;;;;;;;1.63;1.53;;;;;;;21.44;24.15;98058.28;6898688;28;20241;-74
2021/05/22 17:15:01;;;;;;;2.07;1.50;;;;;;;21.86;23.86;98066.53;6898895;28;20327;-75
2021/05/22 17:18:22;;;;;;;3.73;1.30;;;;;;;21.51;24.02;98056.00;6899572;28;20265;-75
2021/05/22 17:21:43;;;;;;;3.10;1.80;;;;;;;21.84;24.11;98142.88;6899070;28;20214;-75
2021/05/22 17:25:08;;;;;;;1.30;1.20;;;;;;;21.85;23.79;98064.91;6899596;28;20296;-76
2021/05/22 17:28:30;;;;;;;3.90;2.70;;;;;;;21.46;24.37;98080.72;6900613;28;20218;-76
2021/05/22 17:31:51;;;;;;;2.43;1.83;;;;;;;21.67;24.10;98132.34;6897580;28;20296;-75
2021/05/22 17:35:12;;;;;;;2.10;1.90;;;;;;;21.34;24.69;98113.22;6899044;28;20222;-76
2021/05/22 17:38:34;;;;;;;5.90;2.10;;;;;;;21.54;24.81;98135.78;6898821;28;20212;-75
2021/05/22 17:41:55;;;;;;;5.20;3.10;;;;;;;21.65;25.18;98092.59;6896735;28;20214;-74
2021/05/22 17:45:19;;;;;;;1.53;1.27;;;;;;;21.83;25.14;98158.50;6907107;28;20258;-74
2021/05/22 17:48:40;;;;;;;3.37;2.57;;;;;;;20.91;25.67;98091.47;6946421;28;20209;-74
2021/05/22 17:52:02;;;;;;;5.73;4.27;;;;;;;21.77;25.06;98129.50;6923587;28;20320;-74
2021/05/22 17:55:23;;;;;;;2.17;1.40;;;;;;;21.35;25.09;98095.66;6924393;28;20215;-73
2021/05/22 17:58:44;;;;;;;2.50;1.27;;;;;;;21.24;25.78;98138.84;6943359;28;20229;-74
2021/05/22 18:02:07;;;;;;;2.10;1.53;;;;;;;21.39;25.60;98127.72;6921235;28;20609;-74
2021/05/22 18:05:28;;;;;;;2.40;1.17;;;;;;;20.92;25.80;98093.94;6922846;28;20205;-73
2021/05/22 18:08:50;;;;;;;2.37;1.37;;;;;;;20.52;26.03;98066.84;6931587;28;20200;-73
2021/05/22 18:12:11;;;;;;;2.33;1.40;;;;;;;;;;6935932;28;20607;-72
2021/05/22 18:15:34;;;;;;;1.60;1.37;;;;;;;20.74;26.04;98067.22;6922127;28;20233;-74
2021/05/22 18:18:57;;;;;;;2.13;1.10;;;;;;;21.03;26.56;98155.78;6924186;28;20207;-72
2021/05/22 18:22:18;;;;;;;2.07;1.50;;;;;;;20.98;27.28;98161.28;6922610;28;20207;-74
2021/05/22 18:25:40;;;;;;;2.67;1.50;;;;;;;21.11;27.15;98151.59;6923738;28;20299;-76
2021/05/22 18:29:01;;;;;;;1.40;1.33;;;;;;;21.12;27.21;98139.53;6923542;28;20217;-74
2021/05/22 18:32:22;;;;;;;13.20;7.77;;;;;;;20.81;27.54;98106.03;6920971;28;20237;-74
2021/05/22 18:35:45;;;;;;;1.90;1.73;;;;;;;20.97;28.00;98164.31;6923252;28;20193;-73
2021/05/22 18:39:07;;;;;;;2.37;1.40;;;;;;;20.83;28.28;98137.53;6922747;28;20214;-73
2021/05/22 18:42:29;;;;;;;2.40;1.83;;;;;;;21.13;28.07;98161.16;6921166;28;20210;-74
2021/05/22 18:45:50;;;;;;;2.53;2.33;;;;;;;21.03;28.56;98174.97;6896016;28;20251;-73
2021/05/22 18:49:13;;;;;;;3.33;2.00;;;;;;;21.31;28.41;98185.94;6894308;28;20588;-74
2021/05/22 18:52:35;;;;;;;4.03;1.80;;;;;;;20.83;28.76;98118.34;6895170;28;20230;-75
2021/05/22 18:55:57;;;;;;;3.87;1.40;;;;;;;20.77;29.85;98183.63;6895698;28;20219;-75
2021/05/22 18:59:18;;;;;;;3.37;2.77;;;;;;;20.45;30.41;98169.63;6895335;28;20718;-76
2021/05/22 19:02:39;;;;;;;8.63;5.00;;;;;;;20.18;29.98;98074.25;6901774;28;20204;-74
2021/05/22 19:06:01;;;;;;;7.33;4.00;;;;;;;19.92;30.03;98093.81;6922332;28;20212;-74
2021/05/22 19:09:23;;;;;;;4.93;3.10;;;;;;;20.82;30.77;98176.19;6921994;28;20245;-75
2021/05/22 19:12:45;;;;;;;4.17;2.57;;;;;;;20.37;31.57;98165.56;6921513;28;20224;-74
2021/05/22 19:16:06;;;;;;;2.00;1.83;;;;;;;20.78;30.83;98200.59;6920185;28;20234;-73
2021/05/22 19:19:28;;;;;;;3.83;1.50;;;;;;;19.99;32.23;98149.03;6896444;28;20243;-74
2021/05/22 19:22:49;;;;;;;2.43;1.67;;;;;;;19.85;32.95;98200.78;6894465;28;20205;-74
2021/05/22 19:26:18;;;;;;;4.83;1.63;;;;;;;19.55;33.16;98178.19;6894252;28;20212;-74
2021/05/22 19:29:39;;;;;;;3.83;2.20;;;;;;;19.50;33.32;98162.63;6893335;28;20220;-74
2021/05/22 19:33:00;;;;;;;2.53;2.00;;;;;;;19.25;34.03;98164.56;6891055;28;20358;-74
2021/05/22 19:36:21;;;;;;;4.57;3.27;;;;;;;19.31;33.10;98136.13;6891296;28;20212;-75
2021/05/22 19:39:43;;;;;;;3.93;2.20;;;;;;;19.29;33.66;98124.66;6891736;28;20208;-74